Time;durP1;ratioP1;P1;durP2;ratioP2;P2;SDS_P1;SDS_P2;PMS_P1;PMS_P2;Temp;Humidity;BMP_temperature;BMP_pressure;BME280_temperature;BME280_humidity;BME280_pressure;Samples;Min_cycle;Max_cycle;Signal;HPM_P1;HPM_P2
2023/04/25 00:00:44;;;;;;;;;2.67;2.67;;;;;-150.52;100.00;63513.88;2012568;28;2741937;-74
2023/04/25 00:01:54;;;;;;;;;5.67;4.00;;;;;-150.52;100.00;63513.88;2002863;27;2748286;-74
2023/04/25 00:03:05;;;;;;;;;4.67;3.00;;;;;-150.52;100.00;63513.88;2037789;28;2749257;-73
2023/04/25 00:04:17;;;;;;;;;5.25;3.75;;;;;-150.52;100.00;63513.88;2043348;28;2748178;-74
2023/04/25 00:05:31;;;;;;;;;3.33;3.33;;;;;-150.52;100.00;63513.88;2053376;27;2744019;-74
2023/04/25 00:06:44;;;;;;;;;3.50;3.00;;;;;-150.52;100.00;63513.88;2037199;27;2741924;-74
2023/04/25 00:07:54;;;;;;;;;4.33;3.00;;;;;-150.52;100.00;63513.88;2004797;27;2754492;-74
2023/04/25 00:09:10;;;;;;;;;3.33;3.33;;;;;-150.52;100.00;63513.88;2052354;27;2752443;-74
2023/04/25 00:10:23;;;;;;;;;3.67;3.67;;;;;-150.52;100.00;63513.88;2035941;27;2740223;-74
2023/04/25 00:11:37;;;;;;;;;5.50;3.17;;;;;-150.52;100.00;63513.88;2030291;27;2742994;-74
2023/04/25 00:12:51;;;;;;;;;4.67;4.67;;;;;-150.52;100.00;63513.88;2031279;27;2747207;-74
2023/04/25 00:14:04;;;;;;;;;5.50;5.00;;;;;-150.52;100.00;63513.88;2037781;27;2735673;-74
2023/04/25 00:15:18;;;;;;;;;3.00;3.00;;;;;-150.52;100.00;63513.88;2038678;27;2748202;-74
2023/04/25 00:16:33;;;;;;;;;6.50;5.33;;;;;-150.52;100.00;63513.88;2062052;27;2740918;-74
2023/04/25 00:17:47;;;;;;;;;4.83;3.67;;;;;-150.52;100.00;63513.88;2028871;28;2748727;-74
2023/04/25 00:19:02;;;;;;;;;3.83;1.33;;;;;-150.52;100.00;63513.88;2030053;28;2746503;-74
2023/04/25 00:20:15;;;;;;;;;3.67;3.00;;;;;-150.52;100.00;63513.88;2023110;28;2752372;-74
2023/04/25 00:21:28;;;;;;;;;2.00;1.00;;;;;-150.52;100.00;63513.88;2023818;28;2744038;-73
2023/04/25 00:22:42;;;;;;;;;4.67;3.50;;;;;-150.52;100.00;63513.88;2054160;27;2750317;-74
2023/04/25 00:23:55;;;;;;;;;4.00;3.83;;;;;-150.52;100.00;63513.88;2029783;27;2747148;-74
2023/04/25 00:25:09;;;;;;;;;4.83;4.83;;;;;-150.52;100.00;63513.88;2030403;27;2745080;-74
2023/04/25 00:26:22;;;;;;;;;2.50;2.00;;;;;-150.52;100.00;63513.88;2029714;28;2754431;-73
2023/04/25 00:27:33;;;;;;;;;4.33;3.67;;;;;-150.52;100.00;63513.88;2011024;27;2746222;-74
2023/04/25 00:28:45;;;;;;;;;3.40;3.40;;;;;-150.52;100.00;63513.88;2057398;27;2737773;-74
2023/04/25 00:29:58;;;;;;;;;6.17;6.17;;;;;-150.52;100.00;63513.88;2052890;28;2743363;-74
2023/04/25 00:31:12;;;;;;;;;3.83;3.83;;;;;-150.52;100.00;63513.88;2025002;28;2747136;-74
2023/04/25 00:32:25;;;;;;;;;6.50;3.83;;;;;-150.52;100.00;63513.88;2052236;27;2748213;-74
2023/04/25 00:33:38;;;;;;;;;6.50;5.67;;;;;-150.52;100.00;63513.88;2029715;27;2740237;-74
2023/04/25 00:34:51;;;;;;;;;5.17;5.17;;;;;-150.52;100.00;63513.88;2031885;27;2745089;-74
2023/04/25 00:36:06;;;;;;;;;8.67;6.33;;;;;-150.52;100.00;63513.88;2059431;27;2737830;-74
2023/04/25 00:37:19;;;;;;;;;6.00;6.00;;;;;-150.52;100.00;63513.88;2029632;28;2748213;-74
2023/04/25 00:38:32;;;;;;;;;6.67;6.50;;;;;-150.52;100.00;63513.88;2052105;27;2735690;-74
2023/04/25 00:39:46;;;;;;;;;8.00;6.33;;;;;-150.52;100.00;63513.88;2053566;28;2741951;-74
2023/04/25 00:40:57;;;;;;;;;9.67;7.67;;;;;-150.52;100.00;63513.88;2024781;28;3461725;-74
2023/04/25 00:42:11;;;;;;;;;8.83;7.50;;;;;-150.52;100.00;63513.88;2053170;27;2732577;-74
2023/04/25 00:43:21;;;;;;;;;8.33;8.33;;;;;-150.52;100.00;63513.88;2004335;27;2748178;-74
2023/04/25 00:44:34;;;;;;;;;9.00;7.67;;;;;-150.52;100.00;63513.88;2051472;27;2751942;-74
2023/04/25 00:45:50;;;;;;;;;9.50;8.00;;;;;-150.52;100.00;63513.88;2059000;27;2755489;-74
2023/04/25 00:47:04;;;;;;;;;9.50;8.17;;;;;-150.52;100.00;63513.88;2035215;27;2726339;-74
2023/04/25 00:48:18;;;;;;;;;7.67;7.17;;;;;-150.52;100.00;63513.88;2035705;27;2735705;-74
2023/04/25 00:49:28;;;;;;;;;10.00;10.00;;;;;-150.52;100.00;63513.88;2025168;27;3513806;-73
2023/04/25 00:50:40;;;;;;;;;8.00;7.67;;;;;-150.52;100.00;63513.88;2042963;27;3450240;-73
2023/04/25 00:51:50;;;;;;;;;10.33;9.00;;;;;-150.52;100.00;63513.88;2025527;27;3489877;-74
2023/04/25 00:53:02;;;;;;;;;13.33;8.33;;;;;-150.52;100.00;63513.88;2040937;28;2769114;-74
2023/04/25 00:54:13;;;;;;;;;12.33;7.67;;;;;-150.52;100.00;63513.88;2027958;27;2758602;-74
2023/04/25 00:55:26;;;;;;;;;6.00;6.00;;;;;-150.52;100.00;63513.88;2061165;27;2746094;-74
2023/04/25 00:56:40;;;;;;;;;9.67;7.67;;;;;-150.52;100.00;63513.88;2058230;27;2745092;-74
2023/04/25 00:57:53;;;;;;;;;8.00;8.00;;;;;-150.52;100.00;63513.88;2038195;27;2732601;-74
2023/04/25 00:59:04;;;;;;;;;10.00;10.00;;;;;-150.52;100.00;63513.88;2030940;27;3508591;-74
2023/04/25 01:00:15;;;;;;;;;8.33;7.00;;;;;-150.52;100.00;63513.88;2049716;27;2747157;-74
2023/04/25 01:01:28;;;;;;;;;9.00;8.00;;;;;-150.52;100.00;63513.88;2057215;27;2744549;-73
2023/04/25 01:02:42;;;;;;;;;8.00;7.83;;;;;-150.52;100.00;63513.88;2054604;27;2744366;-73
2023/04/25 01:03:56;;;;;;;;;7.00;6.33;;;;;-150.52;100.00;63513.88;2061783;27;2735693;-74
2023/04/25 01:05:09;;;;;;;;;8.33;5.00;;;;;-150.52;100.00;63513.88;2029868;28;2727409;-74
2023/04/25 01:06:23;;;;;;;;;8.33;7.33;;;;;-150.52;100.00;63513.88;2045260;28;2741966;-73
2023/04/25 01:07:36;;;;;;;;;7.17;6.17;;;;;-150.52;100.00;63513.88;2051330;27;2733599;-73
2023/04/25 01:08:50;;;;;;;;;7.83;7.67;;;;;-150.52;100.00;63513.88;2022680;28;2732596;-73
2023/04/25 01:10:06;;;;;;;;;3.50;3.50;;;;;-150.52;100.00;63513.88;2051250;28;2754420;-74
2023/04/25 01:11:19;;;;;;;;;7.00;7.00;;;;;-150.52;100.00;63513.88;2029344;27;2729440;-74
2023/04/25 01:12:34;;;;;;;;;7.00;7.00;;;;;-150.52;100.00;63513.88;2055516;27;2735682;-74
2023/04/25 01:13:45;;;;;;;;;9.33;9.33;;;;;-150.52;100.00;63513.88;2026250;28;2766992;-74
2023/04/25 01:14:57;;;;;;;;;7.75;7.75;;;;;-150.52;100.00;63513.88;2052448;27;2737838;-74
2023/04/25 01:16:07;;;;;;;;;9.00;6.67;;;;;-150.52;100.00;63513.88;2027679;27;2737902;-73
2023/04/25 01:17:19;;;;;;;;;13.00;9.50;;;;;-150.52;100.00;63513.88;2035544;28;2779427;-74
2023/04/25 01:18:30;;;;;;;;;12.00;11.25;;;;;-150.52;100.00;63513.88;2035781;28;1848231;-74
2023/04/25 01:19:42;;;;;;;;;9.67;9.33;;;;;-150.52;100.00;63513.88;2026766;27;2749319;-74
2023/04/25 01:20:55;;;;;;;;;9.00;8.17;;;;;-150.52;100.00;63513.88;2058428;27;2744122;-74
2023/04/25 01:22:06;;;;;;;;;10.67;8.67;;;;;-150.52;100.00;63513.88;1999799;28;3480585;-74
2023/04/25 01:23:18;;;;;;;;;10.33;7.67;;;;;-150.52;100.00;63513.88;2021583;27;3471189;-74
2023/04/25 01:24:28;;;;;;;;;8.67;8.67;;;;;-150.52;100.00;63513.88;2033768;27;2744062;-74
2023/04/25 01:25:40;;;;;;;;;7.00;7.00;;;;;-150.52;100.00;63513.88;2045075;28;2744008;-74
2023/04/25 01:26:50;;;;;;;;;11.00;9.00;;;;;-150.52;100.00;63513.88;2002259;27;3474222;-74
2023/04/25 01:28:01;;;;;;;;;10.33;8.00;;;;;-150.52;100.00;63513.88;2039391;27;3484615;-74
2023/04/25 01:29:12;;;;;;;;;12.00;9.00;;;;;-150.52;100.00;63513.88;2060243;27;1829489;-74
2023/04/25 01:30:27;;;;;;;;;8.00;7.00;;;;;-150.52;100.00;63513.88;2038361;27;2732580;-73
2023/04/25 01:31:41;;;;;;;;;7.50;5.50;;;;;-150.52;100.00;63513.88;2052028;28;2736744;-74
2023/04/25 01:32:54;;;;;;;;;10.33;8.33;;;;;-150.52;100.00;63513.88;2027291;27;2761818;-74
2023/04/25 01:34:07;;;;;;;;;9.00;8.00;;;;;-150.52;100.00;63513.88;2061137;27;2741983;-73
2023/04/25 01:35:20;;;;;;;;;6.67;6.67;;;;;-150.52;100.00;63513.88;2020883;28;2742086;-74
2023/04/25 01:36:34;;;;;;;;;7.50;7.00;;;;;-150.52;100.00;63513.88;2053514;27;2737776;-73
2023/04/25 01:37:45;;;;;;;;;9.33;7.67;;;;;-150.52;100.00;63513.88;2031369;27;2751407;-74
2023/04/25 01:38:56;;;;;;;;;9.33;8.33;;;;;-150.52;100.00;63513.88;2044177;27;3470599;-74
2023/04/25 01:40:10;;;;;;;;;8.80;8.80;;;;;-150.52;100.00;63513.88;2052795;27;2750288;-74
2023/04/25 01:41:24;;;;;;;;;7.33;7.33;;;;;-150.52;100.00;63513.88;2025947;28;2731563;-74
2023/04/25 01:42:36;;;;;;;;;8.67;8.67;;;;;-150.52;100.00;63513.88;2013233;28;3459635;-74
2023/04/25 01:43:47;;;;;;;;;9.67;9.33;;;;;-150.52;100.00;63513.88;2023183;27;3486712;-74
2023/04/25 01:44:59;;;;;;;;;7.25;6.00;;;;;-150.52;100.00;63513.88;2059259;27;2741964;-74
2023/04/25 01:46:12;;;;;;;;;6.50;5.83;;;;;-150.52;100.00;63513.88;2037008;27;2732541;-74
2023/04/25 01:47:23;;;;;;;;;11.00;8.00;;;;;-150.52;100.00;63513.88;2007984;27;2762084;-74
2023/04/25 01:48:34;;;;;;;;;12.00;9.00;;;;;-150.52;100.00;63513.88;2044635;27;2760725;-73
2023/04/25 01:49:45;;;;;;;;;12.67;10.67;;;;;-150.52;100.00;63513.88;2040879;27;3516249;-74
2023/04/25 01:50:55;;;;;;;;;9.00;9.00;;;;;-150.52;100.00;63513.88;2041991;27;3453384;-74
2023/04/25 01:52:06;;;;;;;;;11.00;10.00;;;;;-150.52;100.00;63513.88;2041464;27;3513803;-74
2023/04/25 01:53:17;;;;;;;;;9.67;8.00;;;;;-150.52;100.00;63513.88;2032662;28;3466934;-74
2023/04/25 01:54:29;;;;;;;;;11.00;8.25;;;;;-150.52;100.00;63513.88;2057083;27;1837778;-74
2023/04/25 01:55:40;;;;;;;;;10.67;7.33;;;;;-150.52;100.00;63513.88;2023294;28;2758597;-74
2023/04/25 01:56:51;;;;;;;;;8.33;8.33;;;;;-150.52;100.00;63513.88;2035524;27;2742978;-74
2023/04/25 01:58:09;;;;;;;;;9.40;7.20;;;;;-150.52;100.00;63513.88;2047408;28;2750332;-73
2023/04/25 01:59:21;;;;;;;;;10.33;8.00;;;;;-150.52;100.00;63513.88;2001398;27;3480439;-74
2023/04/25 02:00:32;;;;;;;;;8.67;8.33;;;;;-150.52;100.00;63513.88;2034484;27;2751381;-74
2023/04/25 02:01:43;;;;;;;;;10.67;10.67;;;;;-150.52;100.00;63513.88;2043257;28;3500228;-73
2023/04/25 02:02:57;;;;;;;;;9.33;9.33;;;;;-150.52;100.00;63513.88;2051723;27;2763830;-73
2023/04/25 02:04:07;;;;;;;;;12.00;10.00;;;;;-150.52;100.00;63513.88;2010232;27;3506496;-73
2023/04/25 02:05:19;;;;;;;;;7.33;7.33;;;;;-150.52;100.00;63513.88;2049429;27;3456575;-74
2023/04/25 02:06:30;;;;;;;;;11.00;8.67;;;;;-150.52;100.00;63513.88;2027329;27;3482532;-74
2023/04/25 02:07:41;;;;;;;;;10.33;8.00;;;;;-150.52;100.00;63513.88;2017227;28;3479390;-73
2023/04/25 02:08:52;;;;;;;;;7.67;7.67;;;;;-150.52;100.00;63513.88;2045903;28;2737763;-73
2023/04/25 02:10:05;;;;;;;;;7.50;7.50;;;;;-150.52;100.00;63513.88;2035942;27;2733602;-74
2023/04/25 02:11:16;;;;;;;;;10.00;9.33;;;;;-150.52;100.00;63513.88;2033745;27;3499684;-74
2023/04/25 02:12:27;;;;;;;;;9.33;9.33;;;;;-150.52;100.00;63513.88;2047070;27;2769101;-74
2023/04/25 02:13:38;;;;;;;;;10.67;9.00;;;;;-150.52;100.00;63513.88;2033913;27;2759731;-74
2023/04/25 02:14:49;;;;;;;;;11.67;11.67;;;;;-150.52;100.00;63513.88;2042812;27;3515894;-74
2023/04/25 02:16:00;;;;;;;;;9.33;9.33;;;;;-150.52;100.00;63513.88;2050561;28;1828398;-73
2023/04/25 02:17:12;;;;;;;;;13.33;8.00;;;;;-150.52;100.00;63513.88;2018602;27;2760781;-73
2023/04/25 02:18:23;;;;;;;;;13.00;9.00;;;;;-150.52;100.00;63513.88;2025034;27;2767044;-74
2023/04/25 02:19:33;;;;;;;;;10.00;8.67;;;;;-150.52;100.00;63513.88;2024219;28;3476302;-74
2023/04/25 02:20:45;;;;;;;;;10.50;7.75;;;;;-150.52;100.00;63513.88;2044744;28;2741926;-74
2023/04/25 02:21:58;;;;;;;;;8.17;7.00;;;;;-150.52;100.00;63513.88;2045046;28;2732705;-74
2023/04/25 02:23:09;;;;;;;;;9.33;9.33;;;;;-150.52;100.00;63513.88;2016420;28;3484642;-74
2023/04/25 02:24:21;;;;;;;;;9.00;7.25;;;;;-150.52;100.00;63513.88;2051399;27;2746093;-74
2023/04/25 02:25:31;;;;;;;;;8.33;7.33;;;;;-150.52;100.00;63513.88;2033173;27;2749240;-74
2023/04/25 02:26:42;;;;;;;;;11.00;9.50;;;;;-150.52;100.00;63513.88;2052138;27;2777346;-74
2023/04/25 02:27:54;;;;;;;;;7.75;6.50;;;;;-150.52;100.00;63513.88;2056828;27;2738764;-74
2023/04/25 02:29:09;;;;;;;;;9.00;8.33;;;;;-150.52;100.00;63513.88;2031119;27;2752331;-74
2023/04/25 02:30:19;;;;;;;;;11.00;8.67;;;;;-150.52;100.00;63513.88;2003731;27;3478396;-74
2023/04/25 02:31:30;;;;;;;;;9.67;9.67;;;;;-150.52;100.00;63513.88;2064169;27;1837809;-74
2023/04/25 02:32:41;;;;;;;;;10.00;7.67;;;;;-150.52;100.00;63513.88;2023001;27;3475240;-73
2023/04/25 02:33:52;;;;;;;;;7.33;6.00;;;;;-150.52;100.00;63513.88;2050774;28;2735112;-74
2023/04/25 02:35:06;;;;;;;;;8.50;7.83;;;;;-150.52;100.00;63513.88;2030814;27;2737774;-74
2023/04/25 02:36:18;;;;;;;;;14.25;10.00;;;;;-150.52;100.00;63513.88;2023646;27;1836767;-74
2023/04/25 02:37:29;;;;;;;;;15.67;9.33;;;;;-150.52;100.00;63513.88;2047951;27;3510702;-74
2023/04/25 02:38:40;;;;;;;;;10.50;10.50;;;;;-150.52;100.00;63513.88;2027460;27;2789850;-74
2023/04/25 02:39:51;;;;;;;;;9.67;7.67;;;;;-150.52;100.00;63513.88;2041443;27;2751350;-74
2023/04/25 02:41:02;;;;;;;;;9.50;9.00;;;;;-150.52;100.00;63513.88;2063350;27;1835757;-74
2023/04/25 02:42:13;;;;;;;;;10.00;9.33;;;;;-150.52;100.00;63513.88;2027268;27;3478357;-74
2023/04/25 02:43:24;;;;;;;;;13.00;10.00;;;;;-150.52;100.00;63513.88;2041612;27;3505439;-73
2023/04/25 02:44:35;;;;;;;;;13.00;9.00;;;;;-150.52;100.00;63513.88;2042273;27;3480463;-73
2023/04/25 02:45:46;;;;;;;;;11.00;9.67;;;;;-150.52;100.00;63513.88;2043298;27;3500275;-74
2023/04/25 02:46:57;;;;;;;;;12.00;11.00;;;;;-150.52;100.00;63513.88;2039965;28;3510679;-74
2023/04/25 02:48:07;;;;;;;;;10.00;10.00;;;;;-150.52;100.00;63513.88;2040865;27;3511761;-74
2023/04/25 02:49:19;;;;;;;;;11.33;8.00;;;;;-150.52;100.00;63513.88;2056627;27;1825251;-74
2023/04/25 02:50:30;;;;;;;;;8.33;7.67;;;;;-150.52;100.00;63513.88;2026372;28;1817059;-73
2023/04/25 02:51:40;;;;;;;;;10.00;10.00;;;;;-150.52;100.00;63513.88;1994244;27;3515867;-74
2023/04/25 02:52:51;;;;;;;;;11.67;10.00;;;;;-150.52;100.00;63513.88;2038597;28;2770145;-73
2023/04/25 02:54:02;;;;;;;;;14.33;8.67;;;;;-150.52;100.00;63513.88;2041235;27;3487736;-73
2023/04/25 02:55:13;;;;;;;;;11.00;9.00;;;;;-150.52;100.00;63513.88;2034811;27;3489383;-73
2023/04/25 02:56:25;;;;;;;;;9.67;9.00;;;;;-150.52;100.00;63513.88;2027282;28;3477338;-73
2023/04/25 02:57:36;;;;;;;;;13.67;11.33;;;;;-150.52;100.00;63513.88;2024031;28;3513792;-74
2023/04/25 02:58:47;;;;;;;;;12.00;9.00;;;;;-150.52;100.00;63513.88;2060129;27;1836772;-73
2023/04/25 02:59:58;;;;;;;;;11.00;9.67;;;;;-150.52;100.00;63513.88;2025145;27;2770071;-73
2023/04/25 03:01:09;;;;;;;;;12.67;10.00;;;;;-150.52;100.00;63513.88;2047614;27;3504517;-74
2023/04/25 03:02:20;;;;;;;;;12.67;12.67;;;;;-150.52;100.00;63513.88;2044738;27;3513788;-73
2023/04/25 03:03:31;;;;;;;;;11.00;10.50;;;;;-150.52;100.00;63513.88;2036226;28;2786733;-74
2023/04/25 03:04:42;;;;;;;;;10.00;10.00;;;;;-150.52;100.00;63513.88;2032774;28;3516856;-73
2023/04/25 03:05:54;;;;;;;;;12.25;12.25;;;;;-150.52;100.00;63513.88;2046160;28;1844093;-74
2023/04/25 03:07:06;;;;;;;;;10.00;10.00;;;;;-150.52;100.00;63513.88;2038961;28;1833648;-73
2023/04/25 03:08:19;;;;;;;;;15.00;10.00;;;;;-150.52;100.00;63513.88;2013988;28;2788892;-73
2023/04/25 03:09:29;;;;;;;;;10.67;10.67;;;;;-150.52;100.00;63513.88;2022180;27;3511732;-73
2023/04/25 03:10:41;;;;;;;;;11.00;9.33;;;;;-150.52;100.00;63513.88;2038711;27;3502321;-74
2023/04/25 03:11:51;;;;;;;;;13.33;11.67;;;;;-150.52;100.00;63513.88;2032723;27;3515870;-73
2023/04/25 03:13:02;;;;;;;;;11.00;9.00;;;;;-150.52;100.00;63513.88;2039684;27;3478360;-74
2023/04/25 03:14:13;;;;;;;;;12.00;11.50;;;;;-150.52;100.00;63513.88;2046551;27;2786729;-73
2023/04/25 03:15:24;;;;;;;;;11.00;10.67;;;;;-150.52;100.00;63513.88;2036032;28;3511681;-74
2023/04/25 03:16:35;;;;;;;;;10.67;10.67;;;;;-150.52;100.00;63513.88;2030020;28;3510650;-73
2023/04/25 03:17:47;;;;;;;;;13.75;12.00;;;;;-150.52;100.00;63513.88;2060951;27;1844572;-73
2023/04/25 03:18:58;;;;;;;;;12.50;10.25;;;;;-150.52;100.00;63513.88;2043602;27;1841949;-73
2023/04/25 03:20:10;;;;;;;;;10.75;9.50;;;;;-150.52;100.00;63513.88;2047023;27;1839926;-74
2023/04/25 03:21:20;;;;;;;;;9.50;9.50;;;;;-150.52;100.00;63513.88;2032871;27;2762797;-74
2023/04/25 03:22:31;;;;;;;;;13.00;11.00;;;;;-150.52;100.00;63513.88;2051460;27;2790887;-74
2023/04/25 03:23:43;;;;;;;;;18.00;13.00;;;;;-150.52;100.00;63513.88;2050370;27;2808899;-73
2023/04/25 03:24:54;;;;;;;;;17.33;11.00;;;;;-150.52;100.00;63513.88;2047568;27;3539813;-74
2023/04/25 03:26:04;;;;;;;;;15.00;13.00;;;;;-150.52;100.00;63513.88;2032268;27;2803394;-74
2023/04/25 03:27:16;;;;;;;;;12.00;11.00;;;;;-150.52;100.00;63513.88;2050030;27;2791946;-74
2023/04/25 03:28:27;;;;;;;;;13.00;11.00;;;;;-150.52;100.00;63513.88;2029799;27;2794016;-73
2023/04/25 03:29:38;;;;;;;;;12.67;10.00;;;;;-150.52;100.00;63513.88;1996184;28;3507541;-74
2023/04/25 03:30:49;;;;;;;;;15.00;11.50;;;;;-150.52;100.00;63513.88;2041288;27;2786753;-73
2023/04/25 03:32:00;;;;;;;;;17.00;11.00;;;;;-150.52;100.00;63513.88;2034099;28;3531484;-74
2023/04/25 03:33:11;;;;;;;;;15.00;12.00;;;;;-150.52;100.00;63513.88;2030777;28;2791933;-74
2023/04/25 03:34:22;;;;;;;;;14.33;12.33;;;;;-150.52;100.00;63513.88;2052880;27;1835809;-73
2023/04/25 03:35:32;;;;;;;;;18.00;12.50;;;;;-150.52;100.00;63513.88;2009185;27;2806540;-74
2023/04/25 03:36:44;;;;;;;;;18.00;13.00;;;;;-150.52;100.00;63513.88;2027394;27;2795062;-74
2023/04/25 03:37:54;;;;;;;;;16.00;14.00;;;;;-150.52;100.00;63513.88;2040645;27;2816985;-74
2023/04/25 03:39:06;;;;;;;;;11.67;10.67;;;;;-150.52;100.00;63513.88;2033235;27;1837790;-74
2023/04/25 03:40:17;;;;;;;;;17.00;13.00;;;;;-150.52;100.00;63513.88;2026228;27;2810663;-74
2023/04/25 03:41:28;;;;;;;;;14.50;13.00;;;;;-150.52;100.00;63513.88;2016458;28;2785739;-74
2023/04/25 03:42:39;;;;;;;;;14.00;11.50;;;;;-150.52;100.00;63513.88;2032980;28;2788119;-74
2023/04/25 03:43:50;;;;;;;;;13.50;10.00;;;;;-150.52;100.00;63513.88;2050692;27;1848228;-74
2023/04/25 03:45:01;;;;;;;;;14.00;12.00;;;;;-150.52;100.00;63513.88;2032019;27;3534618;-74
2023/04/25 03:46:12;;;;;;;;;12.00;11.00;;;;;-150.52;100.00;63513.88;2049810;27;2788797;-74
2023/04/25 03:47:23;;;;;;;;;14.50;10.00;;;;;-150.52;100.00;63513.88;2052110;27;2792939;-74
2023/04/25 03:48:34;;;;;;;;;14.00;11.00;;;;;-150.52;100.00;63513.88;2049058;27;2787764;-74
2023/04/25 03:49:45;;;;;;;;;10.67;10.67;;;;;-150.52;100.00;63513.88;2041469;28;3513077;-74
2023/04/25 03:50:57;;;;;;;;;13.00;11.40;;;;;-150.52;100.00;63513.88;2047614;28;1833673;-74
2023/04/25 03:52:07;;;;;;;;;13.50;12.00;;;;;-150.52;100.00;63513.88;2026801;27;2787775;-74
2023/04/25 03:53:18;;;;;;;;;14.00;10.00;;;;;-150.52;100.00;63513.88;2016401;28;2779403;-74
2023/04/25 03:54:29;;;;;;;;;14.50;12.50;;;;;-150.52;100.00;63513.88;2035939;28;2791970;-74
2023/04/25 03:55:40;;;;;;;;;16.00;11.00;;;;;-150.52;100.00;63513.88;2018894;27;2804417;-74
2023/04/25 03:56:51;;;;;;;;;12.33;10.00;;;;;-150.52;100.00;63513.88;2039612;27;3505426;-74
2023/04/25 03:58:02;;;;;;;;;13.00;10.00;;;;;-150.52;100.00;63513.88;2065038;27;1842034;-74
2023/04/25 03:59:15;;;;;;;;;15.50;13.00;;;;;-150.52;100.00;63513.88;2036182;27;1822184;-74
2023/04/25 04:00:26;;;;;;;;;15.50;12.50;;;;;-150.52;100.00;63513.88;2002690;28;2803389;-74
2023/04/25 04:01:37;;;;;;;;;14.00;10.50;;;;;-150.52;100.00;63513.88;2040256;28;2791961;-74
2023/04/25 04:02:49;;;;;;;;;15.00;13.25;;;;;-150.52;100.00;63513.88;2056037;27;1842090;-74
2023/04/25 04:03:59;;;;;;;;;12.00;11.00;;;;;-150.52;100.00;63513.88;2032019;27;3513792;-74
2023/04/25 04:05:10;;;;;;;;;12.00;10.00;;;;;-150.52;100.00;63513.88;2007364;28;2788813;-73
2023/04/25 04:06:21;;;;;;;;;11.00;9.33;;;;;-150.52;100.00;63513.88;2037703;28;3502286;-74
2023/04/25 04:07:33;;;;;;;;;14.50;11.50;;;;;-150.52;100.00;63513.88;2054833;27;1815896;-74
2023/04/25 04:08:43;;;;;;;;;13.50;10.00;;;;;-150.52;100.00;63513.88;2011321;27;2785687;-74
2023/04/25 04:09:54;;;;;;;;;11.50;10.00;;;;;-150.52;100.00;63513.88;2048159;27;2787751;-74
2023/04/25 04:11:05;;;;;;;;;10.33;9.00;;;;;-150.52;100.00;63513.88;2051611;27;3478361;-73
2023/04/25 04:12:17;;;;;;;;;13.00;11.75;;;;;-150.52;100.00;63513.88;2063436;27;1848237;-74
2023/04/25 04:13:29;;;;;;;;;11.75;11.75;;;;;-150.52;100.00;63513.88;2040988;27;1854459;-74
2023/04/25 04:14:40;;;;;;;;;9.00;9.00;;;;;-150.52;100.00;63513.88;2028896;27;2742036;-73
2023/04/25 04:15:51;;;;;;;;;13.00;13.00;;;;;-150.52;100.00;63513.88;2044717;27;2803440;-74
2023/04/25 04:17:03;;;;;;;;;15.00;13.00;;;;;-150.52;100.00;63513.88;2029698;28;1824747;-73
2023/04/25 04:18:13;;;;;;;;;12.00;9.00;;;;;-150.52;100.00;63513.88;2019731;28;3482495;-74
2023/04/25 04:19:25;;;;;;;;;17.50;12.50;;;;;-150.52;100.00;63513.88;2045976;27;2815883;-73
2023/04/25 04:20:35;;;;;;;;;12.67;11.67;;;;;-150.52;100.00;63513.88;2010346;27;3524149;-73
2023/04/25 04:21:46;;;;;;;;;13.67;12.33;;;;;-150.52;100.00;63513.88;2050523;27;3512786;-73
2023/04/25 04:22:57;;;;;;;;;13.00;13.00;;;;;-150.52;100.00;63513.88;2051077;27;2794036;-73
2023/04/25 04:24:10;;;;;;;;;13.80;11.60;;;;;-150.52;100.00;63513.88;2065226;27;1821190;-73
2023/04/25 04:25:20;;;;;;;;;14.00;12.00;;;;;-150.52;100.00;63513.88;2023632;28;2804456;-73
2023/04/25 04:26:34;;;;;;;;;12.40;9.00;;;;;-150.52;100.00;63513.88;2055391;27;1819032;-74
2023/04/25 04:27:45;;;;;;;;;13.50;13.50;;;;;-150.52;100.00;63513.88;2023426;28;2796093;-74
2023/04/25 04:28:56;;;;;;;;;14.00;10.50;;;;;-150.52;100.00;63513.88;2002955;27;2786781;-73
2023/04/25 04:30:08;;;;;;;;;12.75;11.75;;;;;-150.52;100.00;63513.88;2055321;28;1819048;-73
2023/04/25 04:31:19;;;;;;;;;13.00;11.00;;;;;-150.52;100.00;63513.88;2003766;27;2791938;-74
2023/04/25 04:32:30;;;;;;;;;15.00;12.00;;;;;-150.52;100.00;63513.88;2034076;27;2787791;-73
2023/04/25 04:33:44;;;;;;;;;12.00;11.67;;;;;-150.52;100.00;63513.88;2063617;27;1819060;-73
2023/04/25 04:34:55;;;;;;;;;13.00;11.00;;;;;-150.52;100.00;63513.88;2006827;27;2787758;-73
2023/04/25 04:36:07;;;;;;;;;17.00;12.67;;;;;-150.52;100.00;63513.88;2033178;28;2825341;-74
2023/04/25 04:37:18;;;;;;;;;14.00;12.50;;;;;-150.52;100.00;63513.88;2026418;27;2797221;-74
2023/04/25 04:38:30;;;;;;;;;12.40;12.00;;;;;-150.52;100.00;63513.88;2057404;28;1819664;-74
2023/04/25 04:39:42;;;;;;;;;14.25;10.00;;;;;-150.52;100.00;63513.88;2018106;27;1844064;-73
2023/04/25 04:40:53;;;;;;;;;15.00;12.50;;;;;-150.52;100.00;63513.88;2033408;27;2789860;-74
2023/04/25 04:42:04;;;;;;;;;13.00;12.50;;;;;-150.52;100.00;63513.88;2033949;27;2809672;-74
2023/04/25 04:43:16;;;;;;;;;11.50;10.00;;;;;-150.52;100.00;63513.88;2002911;27;2774214;-74
2023/04/25 04:44:28;;;;;;;;;15.50;14.00;;;;;-150.52;100.00;63513.88;2033615;27;2798230;-74
2023/04/25 04:45:42;;;;;;;;;14.33;12.33;;;;;-150.52;100.00;63513.88;2032128;28;1833667;-74
2023/04/25 04:46:52;;;;;;;;;11.50;11.50;;;;;-150.52;100.00;63513.88;2001859;28;2798172;-73
2023/04/25 04:48:05;;;;;;;;;11.60;11.20;;;;;-150.52;100.00;63513.88;2058379;27;1816988;-73
2023/04/25 04:49:17;;;;;;;;;14.50;12.00;;;;;-150.52;100.00;63513.88;2025774;28;2799214;-74
2023/04/25 04:50:28;;;;;;;;;18.50;15.00;;;;;-150.52;100.00;63513.88;2005427;27;2810662;-73
2023/04/25 04:51:39;;;;;;;;;16.50;13.50;;;;;-150.52;100.00;63513.88;2008236;28;2807574;-73
2023/04/25 04:52:49;;;;;;;;;12.00;11.50;;;;;-150.52;100.00;63513.88;2025425;28;2787786;-74
2023/04/25 04:54:02;;;;;;;;;14.00;11.00;;;;;-150.52;100.00;63513.88;2029998;28;2783589;-73
2023/04/25 04:55:16;;;;;;;;;17.71;15.29;;;;;-150.52;100.00;63513.88;2050736;27;1827368;-73
2023/04/25 04:56:28;;;;;;;;;20.00;17.00;;;;;-150.52;100.00;63513.88;2033046;27;2833599;-73
2023/04/25 04:57:39;;;;;;;;;13.00;11.25;;;;;-150.52;100.00;63513.88;2018323;27;1842115;-73
2023/04/25 04:58:52;;;;;;;;;14.00;14.00;;;;;-150.52;100.00;63513.88;2045395;27;1839932;-73
2023/04/25 05:00:10;;;;;;;;;20.00;17.00;;;;;-150.52;100.00;63513.88;2017045;28;2829416;-73
2023/04/25 05:01:25;;;;;;;;;14.33;14.33;;;;;-150.52;100.00;63513.88;2050233;28;1831543;-73
2023/04/25 05:02:38;;;;;;;;;17.25;14.75;;;;;-150.52;100.00;63513.88;2020885;27;1849282;-74
2023/04/25 05:03:49;;;;;;;;;17.00;14.00;;;;;-150.52;100.00;63513.88;2029844;27;2822172;-73
2023/04/25 05:05:03;;;;;;;;;18.67;14.67;;;;;-150.52;100.00;63513.88;2031497;28;1835712;-73
2023/04/25 05:06:13;;;;;;;;;14.00;11.67;;;;;-150.52;100.00;63513.88;1997585;27;3517957;-73
2023/04/25 05:07:24;;;;;;;;;15.00;13.50;;;;;-150.52;100.00;63513.88;2045527;27;2794021;-74
2023/04/25 05:08:36;;;;;;;;;15.00;13.00;;;;;-150.52;100.00;63513.88;2041683;27;2790892;-73
2023/04/25 05:09:46;;;;;;;;;17.00;17.00;;;;;-150.52;100.00;63513.88;2002070;28;2833594;-73
2023/04/25 05:10:57;;;;;;;;;17.00;16.00;;;;;-150.52;100.00;63513.88;2013038;28;2819104;-74
2023/04/25 05:12:09;;;;;;;;;14.25;14.00;;;;;-150.52;100.00;63513.88;2028565;27;1819111;-73
2023/04/25 05:13:19;;;;;;;;;18.00;13.50;;;;;-150.52;100.00;63513.88;2003058;27;2796120;-73
2023/04/25 05:14:31;;;;;;;;;15.75;15.50;;;;;-150.52;100.00;63513.88;2036758;27;1822168;-74
2023/04/25 05:15:41;;;;;;;;;16.00;13.00;;;;;-150.52;100.00;63513.88;2007506;27;2817990;-73